sensor_id;sensor_type;location;lat;lon;timestamp;pressure;altitude;pressure_sealevel;temperature;humidity
45888;BME280;31595;51.418;7.572;2023-04-10T00:00:42;100962.72;;;5.99;66.16
45888;BME280;31595;51.418;7.572;2023-04-10T00:03:10;100964.34;;;6.00;65.71
45888;BME280;31595;51.418;7.572;2023-04-10T00:05:37;100966.28;;;5.95;65.78
45888;BME280;31595;51.418;7.572;2023-04-10T00:08:05;100960.13;;;5.87;66.20
45888;BME280;31595;51.418;7.572;2023-04-10T00:10:33;100971.50;;;5.86;66.29
45888;BME280;31595;51.418;7.572;2023-04-10T00:13:02;100954.91;;;5.86;66.41
45888;BME280;31595;51.418;7.572;2023-04-10T00:15:30;100956.84;;;5.90;66.47
45888;BME280;31595;51.418;7.572;2023-04-10T00:17:57;100954.88;;;5.81;66.99
45888;BME280;31595;51.418;7.572;2023-04-10T00:20:24;100946.31;;;5.82;66.87
45888;BME280;31595;51.418;7.572;2023-04-10T00:22:52;100955.94;;;5.75;66.73
45888;BME280;31595;51.418;7.572;2023-04-10T00:25:20;100954.81;;;5.70;67.18
45888;BME280;31595;51.418;7.572;2023-04-10T00:27:51;100954.00;;;5.70;66.89
45888;BME280;31595;51.418;7.572;2023-04-10T00:30:19;100952.63;;;5.73;66.90
45888;BME280;31595;51.418;7.572;2023-04-10T00:32:46;100951.78;;;5.72;67.14
45888;BME280;31595;51.418;7.572;2023-04-10T00:35:13;100950.41;;;5.75;67.04
45888;BME280;31595;51.418;7.572;2023-04-10T00:37:41;100940.22;;;5.80;66.21
45888;BME280;31595;51.418;7.572;2023-04-10T00:40:10;100934.66;;;5.75;66.36
45888;BME280;31595;51.418;7.572;2023-04-10T00:42:40;100931.31;;;5.68;66.38
45888;BME280;31595;51.418;7.572;2023-04-10T00:45:09;100934.09;;;5.73;66.62
45888;BME280;31595;51.418;7.572;2023-04-10T00:47:37;100927.47;;;5.74;66.41
45888;BME280;31595;51.418;7.572;2023-04-10T00:50:05;100925.81;;;5.73;65.90
45888;BME280;31595;51.418;7.572;2023-04-10T00:52:32;100930.78;;;5.71;66.43
45888;BME280;31595;51.418;7.572;2023-04-10T00:55:01;100922.78;;;5.69;66.56
45888;BME280;31595;51.418;7.572;2023-04-10T00:57:28;100918.34;;;5.68;66.78
45888;BME280;31595;51.418;7.572;2023-04-10T00:59:56;100915.31;;;5.70;66.65
45888;BME280;31595;51.418;7.572;2023-04-10T01:02:24;100913.38;;;5.70;66.15
45888;BME280;31595;51.418;7.572;2023-04-10T01:04:52;100910.63;;;5.81;66.35
45888;BME280;31595;51.418;7.572;2023-04-10T01:07:29;100909.81;;;5.80;66.21
45888;BME280;31595;51.418;7.572;2023-04-10T01:10:03;100913.41;;;5.81;66.53
45888;BME280;31595;51.418;7.572;2023-04-10T01:12:49;100911.19;;;5.78;66.61
45888;BME280;31595;51.418;7.572;2023-04-10T01:15:21;100909.53;;;5.77;66.30
45888;BME280;31595;51.418;7.572;2023-04-10T01:17:55;100907.56;;;5.77;66.76
45888;BME280;31595;51.418;7.572;2023-04-10T01:20:26;100906.22;;;5.80;66.38
45888;BME280;31595;51.418;7.572;2023-04-10T01:25:58;100902.56;;;5.69;67.02
45888;BME280;31595;51.418;7.572;2023-04-10T01:28:49;100901.22;;;5.72;67.11
45888;BME280;31595;51.418;7.572;2023-04-10T01:31:19;100894.28;;;5.64;67.63
45888;BME280;31595;51.418;7.572;2023-04-10T01:33:49;100897.03;;;5.64;67.99
45888;BME280;31595;51.418;7.572;2023-04-10T01:36:21;100908.09;;;5.64;68.00
45888;BME280;31595;51.418;7.572;2023-04-10T01:38:52;100899.81;;;5.64;67.84
45888;BME280;31595;51.418;7.572;2023-04-10T01:41:21;100906.16;;;5.64;67.59
45888;BME280;31595;51.418;7.572;2023-04-10T01:43:51;100911.16;;;5.67;67.91
45888;BME280;31595;51.418;7.572;2023-04-10T01:46:20;100907.84;;;5.70;67.46
45888;BME280;31595;51.418;7.572;2023-04-10T01:48:49;100904.00;;;5.77;67.51
45888;BME280;31595;51.418;7.572;2023-04-10T01:51:17;100900.41;;;5.76;67.19
45888;BME280;31595;51.418;7.572;2023-04-10T01:53:45;100891.84;;;5.78;67.08
45888;BME280;31595;51.418;7.572;2023-04-10T01:56:13;100886.84;;;5.75;67.21
45888;BME280;31595;51.418;7.572;2023-04-10T01:58:42;100870.00;;;5.76;67.39
45888;BME280;31595;51.418;7.572;2023-04-10T02:01:17;100863.91;;;5.79;66.85
45888;BME280;31595;51.418;7.572;2023-04-10T02:03:44;100854.78;;;5.74;67.28
45888;BME280;31595;51.418;7.572;2023-04-10T02:06:14;100860.84;;;5.70;67.23
45888;BME280;31595;51.418;7.572;2023-04-10T02:08:49;100868.03;;;5.66;67.63
45888;BME280;31595;51.418;7.572;2023-04-10T02:11:25;100863.06;;;5.68;67.47
45888;BME280;31595;51.418;7.572;2023-04-10T02:13:59;100862.78;;;5.70;67.67
45888;BME280;31595;51.418;7.572;2023-04-10T02:16:30;100861.41;;;5.67;67.78
45888;BME280;31595;51.418;7.572;2023-04-10T02:18:59;100860.03;;;5.70;68.11
45888;BME280;31595;51.418;7.572;2023-04-10T02:21:27;100860.84;;;5.70;67.97
45888;BME280;31595;51.418;7.572;2023-04-10T02:23:56;100860.84;;;5.70;68.00
45888;BME280;31595;51.418;7.572;2023-04-10T02:26:23;100864.75;;;5.69;68.47
45888;BME280;31595;51.418;7.572;2023-04-10T02:28:50;100857.53;;;5.68;68.44
45888;BME280;31595;51.418;7.572;2023-04-10T02:31:18;100852.31;;;5.67;68.81
45888;BME280;31595;51.418;7.572;2023-04-10T02:33:46;100853.94;;;5.68;68.52
45888;BME280;31595;51.418;7.572;2023-04-10T02:36:14;100854.22;;;5.66;68.79
45888;BME280;31595;51.418;7.572;2023-04-10T02:38:41;100852.56;;;5.65;68.32
45888;BME280;31595;51.418;7.572;2023-04-10T02:41:08;100849.25;;;5.63;67.64
45888;BME280;31595;51.418;7.572;2023-04-10T02:43:35;100846.47;;;5.63;68.18
45888;BME280;31595;51.418;7.572;2023-04-10T02:46:03;100843.72;;;5.63;67.61
45888;BME280;31595;51.418;7.572;2023-04-10T02:48:30;100841.47;;;5.60;67.69
45888;BME280;31595;51.418;7.572;2023-04-10T02:50:59;100841.78;;;5.64;67.04
45888;BME280;31595;51.418;7.572;2023-04-10T02:53:27;100833.19;;;5.55;67.72
45888;BME280;31595;51.418;7.572;2023-04-10T02:55:54;100840.34;;;5.51;68.14
45888;BME280;31595;51.418;7.572;2023-04-10T02:58:21;100841.19;;;5.52;67.58
45888;BME280;31595;51.418;7.572;2023-04-10T03:00:49;100839.25;;;5.47;67.82
45888;BME280;31595;51.418;7.572;2023-04-10T03:03:17;100833.72;;;5.47;67.81
45888;BME280;31595;51.418;7.572;2023-04-10T03:05:45;100838.13;;;5.43;67.85
45888;BME280;31595;51.418;7.572;2023-04-10T03:08:15;100840.31;;;5.41;67.90
45888;BME280;31595;51.418;7.572;2023-04-10T03:10:43;100838.69;;;5.40;68.29
45888;BME280;31595;51.418;7.572;2023-04-10T03:13:11;100839.50;;;5.40;67.89
45888;BME280;31595;51.418;7.572;2023-04-10T03:15:38;100835.06;;;5.34;68.08
45888;BME280;31595;51.418;7.572;2023-04-10T03:18:06;100835.06;;;5.34;68.41
45888;BME280;31595;51.418;7.572;2023-04-10T03:20:35;100838.63;;;5.35;68.19
45888;BME280;31595;51.418;7.572;2023-04-10T03:23:03;100826.75;;;5.34;68.36
45888;BME280;31595;51.418;7.572;2023-04-10T03:25:34;100835.91;;;5.40;68.33
45888;BME280;31595;51.418;7.572;2023-04-10T03:28:01;100828.72;;;5.34;67.88
45888;BME280;31595;51.418;7.572;2023-04-10T03:30:29;100820.13;;;5.35;67.95
45888;BME280;31595;51.418;7.572;2023-04-10T03:32:56;100822.06;;;5.29;67.48
45888;BME280;31595;51.418;7.572;2023-04-10T03:35:23;100812.09;;;5.23;68.21
45888;BME280;31595;51.418;7.572;2023-04-10T03:37:50;100806.28;;;5.20;67.78
45888;BME280;31595;51.418;7.572;2023-04-10T03:40:18;100807.94;;;5.21;68.24
45888;BME280;31595;51.418;7.572;2023-04-10T03:42:46;100799.94;;;5.24;67.43
45888;BME280;31595;51.418;7.572;2023-04-10T03:45:14;100794.41;;;5.19;68.11
45888;BME280;31595;51.418;7.572;2023-04-10T03:47:41;100788.06;;;5.19;67.66
45888;BME280;31595;51.418;7.572;2023-04-10T03:50:09;100792.72;;;5.13;67.10
45888;BME280;31595;51.418;7.572;2023-04-10T03:52:36;100791.03;;;5.07;67.44
45888;BME280;31595;51.418;7.572;2023-04-10T03:55:04;100801.25;;;5.06;67.67
45888;BME280;31595;51.418;7.572;2023-04-10T03:57:32;100784.69;;;5.06;68.11
45888;BME280;31595;51.418;7.572;2023-04-10T04:00:00;100779.72;;;5.08;68.50
45888;BME280;31595;51.418;7.572;2023-04-10T04:02:28;100782.19;;;5.10;68.78
45888;BME280;31595;51.418;7.572;2023-04-10T04:04:55;100779.44;;;5.10;68.68
45888;BME280;31595;51.418;7.572;2023-04-10T04:07:23;100787.50;;;5.17;68.36
45888;BME280;31595;51.418;7.572;2023-04-10T04:09:50;100781.69;;;5.13;69.20
45888;BME280;31595;51.418;7.572;2023-04-10T04:12:17;100784.69;;;5.12;69.65
45888;BME280;31595;51.418;7.572;2023-04-10T04:14:44;100777.25;;;5.12;69.01
45888;BME280;31595;51.418;7.572;2023-04-10T04:17:13;100780.56;;;5.14;69.67
45888;BME280;31595;51.418;7.572;2023-04-10T04:19:40;100776.97;;;5.14;69.31
45888;BME280;31595;51.418;7.572;2023-04-10T04:22:08;100775.59;;;5.11;69.41
45888;BME280;31595;51.418;7.572;2023-04-10T04:24:35;100783.88;;;5.11;68.72
45888;BME280;31595;51.418;7.572;2023-04-10T04:27:02;100777.25;;;5.12;69.21
45888;BME280;31595;51.418;7.572;2023-04-10T04:29:30;100773.34;;;5.08;68.69
45888;BME280;31595;51.418;7.572;2023-04-10T04:31:57;100779.19;;;5.12;68.90
45888;BME280;31595;51.418;7.572;2023-04-10T04:34:26;100779.44;;;5.10;68.40
45888;BME280;31595;51.418;7.572;2023-04-10T04:36:53;100778.88;;;4.98;68.13
45888;BME280;31595;51.418;7.572;2023-04-10T04:39:20;100773.84;;;4.90;68.30
45888;BME280;31595;51.418;7.572;2023-04-10T04:41:48;100770.28;;;4.94;68.17
45888;BME280;31595;51.418;7.572;2023-04-10T04:44:16;100768.91;;;4.97;67.96
45888;BME280;31595;51.418;7.572;2023-04-10T04:46:44;100762.81;;;4.95;67.89
45888;BME280;31595;51.418;7.572;2023-04-10T04:49:11;100767.22;;;4.91;68.61
45888;BME280;31595;51.418;7.572;2023-04-10T04:51:40;100768.03;;;4.86;68.41
45888;BME280;31595;51.418;7.572;2023-04-10T04:54:07;100755.63;;;4.88;68.26
45888;BME280;31595;51.418;7.572;2023-04-10T04:56:35;100757.81;;;4.86;67.90
45888;BME280;31595;51.418;7.572;2023-04-10T04:59:02;100753.13;;;4.87;68.22
45888;BME280;31595;51.418;7.572;2023-04-10T05:01:29;100751.47;;;4.91;68.66
45888;BME280;31595;51.418;7.572;2023-04-10T05:03:57;100759.25;;;4.94;68.08
45888;BME280;31595;51.418;7.572;2023-04-10T05:06:24;100752.03;;;4.93;68.79
45888;BME280;31595;51.418;7.572;2023-04-10T05:08:52;100746.81;;;4.97;68.41
45888;BME280;31595;51.418;7.572;2023-04-10T05:11:20;100744.09;;;5.02;68.97
45888;BME280;31595;51.418;7.572;2023-04-10T05:13:47;100740.78;;;5.05;68.38
45888;BME280;31595;51.418;7.572;2023-04-10T05:16:15;100739.41;;;5.07;68.40
45888;BME280;31595;51.418;7.572;2023-04-10T05:18:42;100740.78;;;5.10;68.58
45888;BME280;31595;51.418;7.572;2023-04-10T05:21:09;100741.94;;;5.19;69.00
45888;BME280;31595;51.418;7.572;2023-04-10T05:23:37;100742.22;;;5.28;68.18
45888;BME280;31595;51.418;7.572;2023-04-10T05:26:05;100743.59;;;5.31;68.75
45888;BME280;31595;51.418;7.572;2023-04-10T05:28:33;100735.91;;;5.38;68.10
45888;BME280;31595;51.418;7.572;2023-04-10T05:31:00;100740.06;;;5.40;67.63
45888;BME280;31595;51.418;7.572;2023-04-10T05:33:27;100744.75;;;5.50;68.47
45888;BME280;31595;51.418;7.572;2023-04-10T05:35:54;100746.44;;;5.61;67.96
45888;BME280;31595;51.418;7.572;2023-04-10T05:38:22;100748.63;;;5.64;68.07
45888;BME280;31595;51.418;7.572;2023-04-10T05:40:49;100743.69;;;5.72;67.84
45888;BME280;31595;51.418;7.572;2023-04-10T05:43:18;100738.72;;;5.84;67.31
45888;BME280;31595;51.418;7.572;2023-04-10T05:45:46;100742.03;;;5.86;67.39
45888;BME280;31595;51.418;7.572;2023-04-10T05:48:13;100742.59;;;5.93;67.00
45888;BME280;31595;51.418;7.572;2023-04-10T05:50:40;100739.84;;;5.98;66.61
45888;BME280;31595;51.418;7.572;2023-04-10T05:53:12;100737.91;;;5.99;66.77
45888;BME280;31595;51.418;7.572;2023-04-10T05:55:40;100742.06;;;6.12;66.63
45888;BME280;31595;51.418;7.572;2023-04-10T05:58:07;100733.19;;;6.15;66.19
45888;BME280;31595;51.418;7.572;2023-04-10T06:00:35;100738.72;;;6.20;66.54
45888;BME280;31595;51.418;7.572;2023-04-10T06:03:03;100746.16;;;6.40;67.10
45888;BME280;31595;51.418;7.572;2023-04-10T06:05:30;100736.16;;;6.54;67.50
45888;BME280;31595;51.418;7.572;2023-04-10T06:07:57;100740.28;;;6.67;67.51
45888;BME280;31595;51.418;7.572;2023-04-10T06:10:27;100739.38;;;6.82;67.09
45888;BME280;31595;51.418;7.572;2023-04-10T06:12:55;100746.03;;;6.86;66.35
45888;BME280;31595;51.418;7.572;2023-04-10T06:15:22;100739.59;;;7.01;65.85
45888;BME280;31595;51.418;7.572;2023-04-10T06:17:50;100733.94;;;7.21;65.67
45888;BME280;31595;51.418;7.572;2023-04-10T06:20:19;100744.72;;;7.28;65.71
45888;BME280;31595;51.418;7.572;2023-04-10T06:22:46;100740.25;;;7.32;64.45
45888;BME280;31595;51.418;7.572;2023-04-10T06:25:13;100739.09;;;7.43;64.60
45888;BME280;31595;51.418;7.572;2023-04-10T06:27:41;100740.09;;;7.58;64.09
45888;BME280;31595;51.418;7.572;2023-04-10T06:30:08;100730.34;;;7.65;63.92
45888;BME280;31595;51.418;7.572;2023-04-10T06:32:36;100729.66;;;7.84;62.85
45888;BME280;31595;51.418;7.572;2023-04-10T06:35:05;100731.38;;;8.09;63.29
45888;BME280;31595;51.418;7.572;2023-04-10T06:37:33;100722.38;;;8.22;62.90
45888;BME280;31595;51.418;7.572;2023-04-10T06:40:04;100719.66;;;8.46;62.42
45888;BME280;31595;51.418;7.572;2023-04-10T06:42:32;100727.22;;;8.65;61.67
45888;BME280;31595;51.418;7.572;2023-04-10T06:45:00;100729.81;;;8.80;61.57
45888;BME280;31595;51.418;7.572;2023-04-10T06:47:27;100722.47;;;9.13;61.21
45888;BME280;31595;51.418;7.572;2023-04-10T06:49:54;100726.44;;;9.26;60.06
45888;BME280;31595;51.418;7.572;2023-04-10T06:52:23;100721.63;;;9.51;60.21
45888;BME280;31595;51.418;7.572;2023-04-10T06:54:50;100710.13;;;9.77;58.76
45888;BME280;31595;51.418;7.572;2023-04-10T06:57:18;100716.88;;;10.03;58.36
45888;BME280;31595;51.418;7.572;2023-04-10T06:59:45;100716.00;;;10.22;58.28
45888;BME280;31595;51.418;7.572;2023-04-10T07:02:12;100714.13;;;10.36;56.79
45888;BME280;31595;51.418;7.572;2023-04-10T07:04:40;100710.25;;;10.65;56.05
45888;BME280;31595;51.418;7.572;2023-04-10T07:07:08;100702.81;;;10.88;55.21
45888;BME280;31595;51.418;7.572;2023-04-10T07:09:38;100704.84;;;10.96;55.27
45888;BME280;31595;51.418;7.572;2023-04-10T07:12:06;100710.78;;;11.17;55.89
45888;BME280;31595;51.418;7.572;2023-04-10T07:14:33;100714.34;;;11.45;53.95
45888;BME280;31595;51.418;7.572;2023-04-10T07:17:01;100705.31;;;11.62;54.01
45888;BME280;31595;51.418;7.572;2023-04-10T07:19:29;100696.84;;;11.90;51.82
45888;BME280;31595;51.418;7.572;2023-04-10T07:21:56;100696.41;;;12.28;50.84
45888;BME280;31595;51.418;7.572;2023-04-10T07:24:24;100699.13;;;12.90;48.30
45888;BME280;31595;51.418;7.572;2023-04-10T07:26:52;100690.38;;;13.84;49.19
45888;BME280;31595;51.418;7.572;2023-04-10T07:29:20;100688.50;;;15.00;42.10
45888;BME280;31595;51.418;7.572;2023-04-10T07:31:47;100682.25;;;16.33;42.41
45888;BME280;31595;51.418;7.572;2023-04-10T07:34:14;100682.28;;;17.31;39.95
45888;BME280;31595;51.418;7.572;2023-04-10T07:36:41;100667.53;;;18.35;34.79
45888;BME280;31595;51.418;7.572;2023-04-10T07:39:11;100663.22;;;19.04;32.47
45888;BME280;31595;51.418;7.572;2023-04-10T07:41:39;100666.22;;;19.47;31.43
45888;BME280;31595;51.418;7.572;2023-04-10T07:44:07;100659.66;;;19.23;29.40
45888;BME280;31595;51.418;7.572;2023-04-10T07:46:38;100658.28;;;18.82;29.87
45888;BME280;31595;51.418;7.572;2023-04-10T07:49:05;100654.50;;;19.29;30.01
45888;BME280;31595;51.418;7.572;2023-04-10T07:51:32;100658.88;;;19.81;27.68
45888;BME280;31595;51.418;7.572;2023-04-10T07:54:00;100653.78;;;20.10;27.69
45888;BME280;31595;51.418;7.572;2023-04-10T07:56:30;100659.41;;;20.30;27.23
45888;BME280;31595;51.418;7.572;2023-04-10T07:58:58;100635.16;;;20.28;27.49
45888;BME280;31595;51.418;7.572;2023-04-10T08:01:28;100636.53;;;20.61;26.56
45888;BME280;31595;51.418;7.572;2023-04-10T08:03:55;100614.94;;;20.07;28.01
45888;BME280;31595;51.418;7.572;2023-04-10T08:06:22;100604.31;;;20.46;27.48
45888;BME280;31595;51.418;7.572;2023-04-10T08:08:53;100599.63;;;20.81;27.55
45888;BME280;31595;51.418;7.572;2023-04-10T08:11:25;100594.75;;;21.68;26.43
45888;BME280;31595;51.418;7.572;2023-04-10T08:13:54;100593.47;;;21.32;25.68
45888;BME280;31595;51.418;7.572;2023-04-10T08:16:23;100584.84;;;21.89;26.04
45888;BME280;31595;51.418;7.572;2023-04-10T08:18:58;100582.47;;;21.27;25.95
45888;BME280;31595;51.418;7.572;2023-04-10T08:21:27;100592.34;;;21.10;25.80
45888;BME280;31595;51.418;7.572;2023-04-10T08:23:56;100579.69;;;21.00;25.28
45888;BME280;31595;51.418;7.572;2023-04-10T08:26:25;100575.47;;;21.17;25.60
45888;BME280;31595;51.418;7.572;2023-04-10T08:28:53;100573.66;;;21.32;24.95
45888;BME280;31595;51.418;7.572;2023-04-10T08:31:22;100555.44;;;20.73;26.29
45888;BME280;31595;51.418;7.572;2023-04-10T08:33:50;100566.38;;;20.74;26.17
45888;BME280;31595;51.418;7.572;2023-04-10T08:36:19;100565.16;;;20.25;25.45
45888;BME280;31595;51.418;7.572;2023-04-10T08:38:46;100567.59;;;21.03;25.03
45888;BME280;31595;51.418;7.572;2023-04-10T08:41:15;100553.81;;;22.55;23.78
45888;BME280;31595;51.418;7.572;2023-04-10T08:43:43;100552.09;;;24.37;22.01
45888;BME280;31595;51.418;7.572;2023-04-10T08:46:11;100550.06;;;24.55;21.83
45888;BME280;31595;51.418;7.572;2023-04-10T08:48:45;100544.91;;;25.49;21.63
45888;BME280;31595;51.418;7.572;2023-04-10T08:51:16;100538.56;;;26.42;19.83
45888;BME280;31595;51.418;7.572;2023-04-10T08:53:50;100569.19;;;27.25;19.28
45888;BME280;31595;51.418;7.572;2023-04-10T08:56:17;100528.78;;;27.19;18.75
45888;BME280;31595;51.418;7.572;2023-04-10T08:58:45;100534.91;;;28.10;18.26
45888;BME280;31595;51.418;7.572;2023-04-10T09:01:13;100534.28;;;27.41;18.62
45888;BME280;31595;51.418;7.572;2023-04-10T09:03:41;100539.34;;;27.87;17.91
45888;BME280;31595;51.418;7.572;2023-04-10T09:06:08;100529.19;;;28.33;18.14
45888;BME280;31595;51.418;7.572;2023-04-10T09:08:35;100520.34;;;29.51;18.02
45888;BME280;31595;51.418;7.572;2023-04-10T09:11:05;100507.16;;;30.72;17.25
45888;BME280;31595;51.418;7.572;2023-04-10T09:13:37;100503.34;;;30.75;15.63
45888;BME280;31595;51.418;7.572;2023-04-10T09:16:08;100519.03;;;30.58;15.94
45888;BME280;31595;51.418;7.572;2023-04-10T09:18:46;100505.50;;;28.77;17.39
45888;BME280;31595;51.418;7.572;2023-04-10T09:21:16;100495.69;;;29.18;17.40
45888;BME280;31595;51.418;7.572;2023-04-10T09:23:45;100497.03;;;28.69;18.06
45888;BME280;31595;51.418;7.572;2023-04-10T09:26:25;100493.00;;;27.38;18.33
45888;BME280;31595;51.418;7.572;2023-04-10T09:29:00;100488.41;;;28.49;17.71
45888;BME280;31595;51.418;7.572;2023-04-10T09:31:29;100472.56;;;28.65;18.43
45888;BME280;31595;51.418;7.572;2023-04-10T09:34:10;100485.38;;;27.86;18.56
45888;BME280;31595;51.418;7.572;2023-04-10T09:36:38;100469.94;;;26.49;18.37
45888;BME280;31595;51.418;7.572;2023-04-10T09:39:07;100477.53;;;27.01;18.80
45888;BME280;31595;51.418;7.572;2023-04-10T09:41:46;100470.53;;;26.33;18.36
45888;BME280;31595;51.418;7.572;2023-04-10T09:44:15;100457.06;;;26.30;18.50
45888;BME280;31595;51.418;7.572;2023-04-10T09:46:43;100452.03;;;26.45;18.46
45888;BME280;31595;51.418;7.572;2023-04-10T09:49:11;100451.34;;;25.85;18.42
45888;BME280;31595;51.418;7.572;2023-04-10T09:51:38;100475.56;;;25.63;19.69
45888;BME280;31595;51.418;7.572;2023-04-10T09:54:05;100451.31;;;25.29;19.48
45888;BME280;31595;51.418;7.572;2023-04-10T09:56:37;100455.88;;;25.79;18.76
45888;BME280;31595;51.418;7.572;2023-04-10T09:59:06;100457.03;;;26.38;18.81
45888;BME280;31595;51.418;7.572;2023-04-10T10:01:34;100470.63;;;25.70;18.79
45888;BME280;31595;51.418;7.572;2023-04-10T10:04:03;100453.63;;;25.52;18.58
45888;BME280;31595;51.418;7.572;2023-04-10T10:06:31;100466.84;;;25.84;18.87
45888;BME280;31595;51.418;7.572;2023-04-10T10:09:01;100456.66;;;25.83;18.69
45888;BME280;31595;51.418;7.572;2023-04-10T10:11:32;100472.53;;;25.18;18.93
45888;BME280;31595;51.418;7.572;2023-04-10T10:14:05;100443.72;;;24.94;18.51
45888;BME280;31595;51.418;7.572;2023-04-10T10:16:40;100455.47;;;26.29;18.24
45888;BME280;31595;51.418;7.572;2023-04-10T10:19:15;100439.03;;;26.41;17.71
45888;BME280;31595;51.418;7.572;2023-04-10T10:21:43;100443.84;;;26.47;17.79
45888;BME280;31595;51.418;7.572;2023-04-10T10:24:12;100442.78;;;25.89;18.11
45888;BME280;31595;51.418;7.572;2023-04-10T10:26:39;100435.00;;;25.37;18.28
45888;BME280;31595;51.418;7.572;2023-04-10T10:29:09;100438.97;;;24.62;18.99
45888;BME280;31595;51.418;7.572;2023-04-10T10:31:38;100426.25;;;24.92;18.20
45888;BME280;31595;51.418;7.572;2023-04-10T10:34:06;100427.38;;;25.76;17.73
45888;BME280;31595;51.418;7.572;2023-04-10T10:36:35;100431.28;;;24.52;19.06
45888;BME280;31595;51.418;7.572;2023-04-10T10:39:19;100414.94;;;24.74;18.97
45888;BME280;31595;51.418;7.572;2023-04-10T10:41:53;100415.03;;;24.31;18.53
45888;BME280;31595;51.418;7.572;2023-04-10T10:44:30;100431.53;;;22.89;20.22
45888;BME280;31595;51.418;7.572;2023-04-10T10:47:06;100419.22;;;22.63;20.46
45888;BME280;31595;51.418;7.572;2023-04-10T10:49:54;100424.22;;;21.66;21.58
45888;BME280;31595;51.418;7.572;2023-04-10T10:52:52;100390.81;;;21.94;21.31
45888;BME280;31595;51.418;7.572;2023-04-10T10:55:31;100406.94;;;21.82;21.92
45888;BME280;31595;51.418;7.572;2023-04-10T10:58:04;100400.19;;;21.12;22.35
45888;BME280;31595;51.418;7.572;2023-04-10T11:01:06;100391.22;;;21.44;22.33
45888;BME280;31595;51.418;7.572;2023-04-10T11:03:34;100378.81;;;21.59;22.12
45888;BME280;31595;51.418;7.572;2023-04-10T11:06:03;100373.03;;;22.74;21.67
45888;BME280;31595;51.418;7.572;2023-04-10T11:08:39;100368.78;;;23.62;21.46
45888;BME280;31595;51.418;7.572;2023-04-10T11:11:10;100358.59;;;23.94;20.07
45888;BME280;31595;51.418;7.572;2023-04-10T11:13:39;100351.56;;;24.45;20.58
45888;BME280;31595;51.418;7.572;2023-04-10T11:16:09;100358.88;;;24.39;19.57
45888;BME280;31595;51.418;7.572;2023-04-10T11:19:01;100351.28;;;23.96;20.57
45888;BME280;31595;51.418;7.572;2023-04-10T11:21:29;100341.09;;;24.13;20.59
45888;BME280;31595;51.418;7.572;2023-04-10T11:24:03;100327.59;;;25.16;19.52
45888;BME280;31595;51.418;7.572;2023-04-10T11:26:40;100322.06;;;25.96;19.20
45888;BME280;31595;51.418;7.572;2023-04-10T11:29:31;100326.97;;;26.64;17.80
45888;BME280;31595;51.418;7.572;2023-04-10T11:32:01;100315.97;;;26.89;18.44
45888;BME280;31595;51.418;7.572;2023-04-10T11:34:29;100306.09;;;27.21;17.71
45888;BME280;31595;51.418;7.572;2023-04-10T11:36:59;100299.78;;;29.01;16.66
45888;BME280;31595;51.418;7.572;2023-04-10T11:39:29;100299.56;;;29.44;16.07
45888;BME280;31595;51.418;7.572;2023-04-10T11:41:56;100276.75;;;27.68;17.02
45888;BME280;31595;51.418;7.572;2023-04-10T11:44:28;100276.91;;;27.33;16.95
45888;BME280;31595;51.418;7.572;2023-04-10T11:46:57;100269.28;;;26.72;17.67
45888;BME280;31595;51.418;7.572;2023-04-10T11:49:28;100274.53;;;26.78;17.53
45888;BME280;31595;51.418;7.572;2023-04-10T11:51:56;100270.91;;;27.51;16.85
45888;BME280;31595;51.418;7.572;2023-04-10T11:54:24;100263.16;;;27.48;16.67
45888;BME280;31595;51.418;7.572;2023-04-10T11:56:57;100256.81;;;27.61;16.52
45888;BME280;31595;51.418;7.572;2023-04-10T11:59:25;100256.41;;;26.88;17.16
45888;BME280;31595;51.418;7.572;2023-04-10T12:01:53;100266.66;;;26.24;16.69
45888;BME280;31595;51.418;7.572;2023-04-10T12:04:30;100250.31;;;25.94;17.30
45888;BME280;31595;51.418;7.572;2023-04-10T12:06:57;100253.59;;;25.02;18.37
45888;BME280;31595;51.418;7.572;2023-04-10T12:09:24;100252.38;;;24.33;19.19
45888;BME280;31595;51.418;7.572;2023-04-10T12:11:54;100236.72;;;25.22;18.37
45888;BME280;31595;51.418;7.572;2023-04-10T12:14:22;100233.59;;;25.54;18.30
45888;BME280;31595;51.418;7.572;2023-04-10T12:16:49;100249.88;;;25.05;18.15
45888;BME280;31595;51.418;7.572;2023-04-10T12:19:18;100231.03;;;25.22;18.73
45888;BME280;31595;51.418;7.572;2023-04-10T12:21:47;100221.78;;;26.24;18.27
45888;BME280;31595;51.418;7.572;2023-04-10T12:24:42;100208.97;;;25.71;18.52
45888;BME280;31595;51.418;7.572;2023-04-10T12:27:16;100206.84;;;26.13;18.61
45888;BME280;31595;51.418;7.572;2023-04-10T12:29:43;100214.31;;;26.34;17.87
45888;BME280;31595;51.418;7.572;2023-04-10T12:32:11;100209.03;;;25.64;18.60
45888;BME280;31595;51.418;7.572;2023-04-10T12:34:38;100221.84;;;26.48;17.46
45888;BME280;31595;51.418;7.572;2023-04-10T12:37:07;100206.47;;;27.20;17.14
45888;BME280;31595;51.418;7.572;2023-04-10T12:39:35;100205.88;;;25.55;18.08
45888;BME280;31595;51.418;7.572;2023-04-10T12:42:13;100188.94;;;26.09;18.33
45888;BME280;31595;51.418;7.572;2023-04-10T12:44:50;100208.63;;;26.30;17.93
45888;BME280;31595;51.418;7.572;2023-04-10T12:47:18;100194.56;;;26.16;17.04
45888;BME280;31595;51.418;7.572;2023-04-10T12:50:04;100194.69;;;26.05;17.01
45888;BME280;31595;51.418;7.572;2023-04-10T12:52:34;100199.00;;;27.02;16.66
45888;BME280;31595;51.418;7.572;2023-04-10T12:55:10;100179.34;;;27.04;16.85
45888;BME280;31595;51.418;7.572;2023-04-10T12:57:38;100170.47;;;27.66;15.66
45888;BME280;31595;51.418;7.572;2023-04-10T13:00:07;100166.13;;;27.38;16.20
45888;BME280;31595;51.418;7.572;2023-04-10T13:02:35;100157.25;;;27.52;16.28
45888;BME280;31595;51.418;7.572;2023-04-10T13:05:03;100145.53;;;28.06;16.01
45888;BME280;31595;51.418;7.572;2023-04-10T13:07:31;100142.13;;;28.48;16.32
45888;BME280;31595;51.418;7.572;2023-04-10T13:10:00;100166.41;;;27.87;16.90